Atlas — YP3292 — position and weather

sailwx.info

Track history (hours):
 
Tides and Currents Weather Stations Pressure Air Temp Water Temp Dewpoint Dewpoint Depression Visibility Wind Speed Wind Dir Waves Ship Positions

Atlas

Last reported at 2018-Jun-20 04:19 UTC. Time now 2018-Jun-20 11:05 UTC.
Position N 44°31' E 022°13'.

Length 110 m; draft 0.2 m.

Type: Tanker. MMSI: 264163292.

Date/timePositionNaut miles runAvg speedWind from/ knotsBaromVisibWave heightAir tempDewpointWater temp
2018-Jun-20 04:19N 44°31' E 022°13'3 9.0
2018-Jun-20 04:01N 44°29' E 022°11'4 8.2
2018-Jun-20 03:30N 44°30' E 022°05'4 9.0
2018-Jun-20 03:01N 44°33' E 022°02'35 6.1
2018-Jun-19 21:24N 44°49' E 021°18'4 9.5
2018-Jun-19 21:00N 44°47' E 021°14'5 9.7
2018-Jun-19 20:30N 44°44' E 021°08'5 9.6
2018-Jun-19 20:01N 44°43' E 021°02'5 9.4
2018-Jun-19 19:31N 44°41' E 020°56'510.0
2018-Jun-19 19:00N 44°39' E 020°49'5 9.6
2018-Jun-19 18:31N 44°41' E 020°43'5 9.8
2018-Jun-19 18:01N 44°45' E 020°38'5 9.3
2018-Jun-19 17:30N 44°50' E 020°39'4 7.8
2018-Jun-19 17:01N 44°51' E 020°33'4 7.3
2018-Jun-19 16:30N 44°50' E 020°28'0 0.0
2018-Jun-19 16:01N 44°50' E 020°28'0 0.0
2018-Jun-19 15:31N 44°50' E 020°28'0 0.6
2018-Jun-19 15:01N 44°50' E 020°29'2 4.4
2018-Jun-19 14:30N 44°51' E 020°26'510.6
2018-Jun-19 14:00N 44°54' E 020°20'510.5
2018-Jun-19 13:30N 44°59' E 020°18'5 9.1
2018-Jun-19 13:01N 45°03' E 020°21'611.4
2018-Jun-19 12:31N 45°08' E 020°17'611.2
2018-Jun-19 12:01N 45°11' E 020°11'611.3
2018-Jun-19 11:31N 45°10' E 020°03'510.8
2018-Jun-19 11:01N 45°13' E 019°56'4 7.5
2018-Jun-19 10:31N 45°16' E 019°53'0 0.0
2018-Jun-19 10:01N 45°16' E 019°53'0 0.0
2018-Jun-19 09:31N 45°16' E 019°53'2 4.1
2018-Jun-19 09:01N 45°14' E 019°55'3 6.1
2018-Jun-19 08:31N 45°12' E 019°57'2 3.1
2018-Jun-19 08:01N 45°11' E 019°59'0 0.0
2018-Jun-19 07:31N 45°11' E 019°59'0 0.0
2018-Jun-19 07:01N 45°11' E 019°59'0 0.0
2018-Jun-19 06:31N 45°11' E 019°59'0 0.0
2018-Jun-19 06:01N 45°11' E 019°59'0 0.0
2018-Jun-19 05:31N 45°11' E 019°59'0 0.0
2018-Jun-19 05:01N 45°11' E 019°59'0 0.0
2018-Jun-19 04:31N 45°11' E 019°59'0 0.0
2018-Jun-19 04:01N 45°11' E 019°59'0 0.0
2018-Jun-19 03:31N 45°11' E 019°59'0 0.0
2018-Jun-19 03:01N 45°11' E 019°59'0 0.0
2018-Jun-19 02:31N 45°11' E 019°59'0 0.0
2018-Jun-19 02:01N 45°11' E 019°59'0 0.0
2018-Jun-19 01:31N 45°11' E 019°59'0 0.0
2018-Jun-19 01:01N 45°11' E 019°59'0 0.0
2018-Jun-19 00:30N 45°11' E 019°59'0 0.0
2018-Jun-19 00:01N 45°11' E 019°59'0 0.0
2018-Jun-18 23:31N 45°11' E 019°59'0 0.0
2018-Jun-18 23:01N 45°11' E 019°59'0 0.0
2018-Jun-18 22:31N 45°11' E 019°59'0 0.0
2018-Jun-18 22:01N 45°11' E 019°59'0 0.0
2018-Jun-18 21:30N 45°11' E 019°59'0 0.0
2018-Jun-18 21:01N 45°11' E 019°59'0 0.0
2018-Jun-18 20:30N 45°11' E 019°59'0 0.0
2018-Jun-18 20:01N 45°11' E 019°59'0 0.0
2018-Jun-18 19:31N 45°11' E 019°59'0 0.0
2018-Jun-18 19:01N 45°11' E 019°59'0 0.0
2018-Jun-18 18:31N 45°11' E 019°59'0 0.0
2018-Jun-18 18:01N 45°11' E 019°59'0 0.0
2018-Jun-18 17:31N 45°11' E 019°59'0 0.0
2018-Jun-18 17:01N 45°11' E 019°59'0 0.0
2018-Jun-18 16:31N 45°11' E 019°59'0 0.0
2018-Jun-18 16:01N 45°11' E 019°59'0 0.0
2018-Jun-18 15:30N 45°11' E 019°59'0 0.0
2018-Jun-18 15:01N 45°11' E 019°59'0 0.0
2018-Jun-18 14:31N 45°11' E 019°59'0 0.0
2018-Jun-18 14:01N 45°11' E 019°59'0 0.0
2018-Jun-18 13:31N 45°11' E 019°59'0 0.3
2018-Jun-18 13:01N 45°11' E 019°59'3 6.7
2018-Jun-18 12:31N 45°13' E 019°56'2 3.4
2018-Jun-18 12:01N 45°15' E 019°54'0 0.0
2018-Jun-18 11:31N 45°15' E 019°54'0 0.0
2018-Jun-18 11:01N 45°15' E 019°54'0 0.0
2018-Jun-18 10:31N 45°15' E 019°54'0 0.0
2018-Jun-18 10:01N 45°15' E 019°54'0 0.0
2018-Jun-18 09:31N 45°15' E 019°54'0 0.0
2018-Jun-18 09:01N 45°15' E 019°54'0 0.0
2018-Jun-18 08:31N 45°15' E 019°54'0 0.0
2018-Jun-18 08:01N 45°15' E 019°54'0 0.0
2018-Jun-18 07:31N 45°15' E 019°54'0 0.0
2018-Jun-18 07:00N 45°15' E 019°54'0 0.0
2018-Jun-18 06:31N 45°15' E 019°54'0 0.0
2018-Jun-18 06:01N 45°15' E 019°54'0 0.0
2018-Jun-18 05:31N 45°15' E 019°54'0 0.0
2018-Jun-18 05:01N 45°15' E 019°54'0 0.0
2018-Jun-18 04:31N 45°15' E 019°54'1 1.4
2018-Jun-18 04:01N 45°14' E 019°55'3 5.7
2018-Jun-18 03:31N 45°12' E 019°57'3 5.6
2018-Jun-18 03:00N 45°11' E 020°01'3 5.5
2018-Jun-18 02:31N 45°10' E 020°05'3 5.3
2018-Jun-18 01:59N 45°10' E 020°08'2 3.8
2018-Jun-18 01:29N 45°11' E 020°11'2 5.0
2018-Jun-18 01:01N 45°10' E 020°14'3 5.6
2018-Jun-18 00:30N 45°08' E 020°17'3 5.7
2018-Jun-18 00:00N 45°05' E 020°19'2 3.3
2018-Jun-17 23:30N 45°04' E 020°20'3 5.3
2018-Jun-17 23:01N 45°02' E 020°22'2 4.6
2018-Jun-17 22:31N 44°60' E 020°20'3 5.2
2018-Jun-17 22:01N 44°58' E 020°17'3 5.6
2018-Jun-17 21:31N 44°56' E 020°19'3 5.9
2018-Jun-17 21:01N 44°53' E 020°21'3 5.7
2018-Jun-17 20:31N 44°51' E 020°24'3 6.1
2018-Jun-17 20:00N 44°50' E 020°28'3 6.3
2018-Jun-17 19:31N 44°50' E 020°33'3 6.2
2018-Jun-17 19:00N 44°51' E 020°37'3 5.3
2018-Jun-17 18:31N 44°49' E 020°39'3 5.9
2018-Jun-17 18:01N 44°46' E 020°38'3 5.8
2018-Jun-17 17:30N 44°44' E 020°41'3 6.1
2018-Jun-17 17:01N 44°41' E 020°43'3 5.8
2018-Jun-17 16:30N 44°40' E 020°46'3 5.7
2018-Jun-17 16:00N 44°39' E 020°50'3 5.8
2018-Jun-17 15:31N 44°40' E 020°54'3 6.0
2018-Jun-17 15:01N 44°42' E 020°58'3 5.7
2018-Jun-17 14:30N 44°43' E 021°01'3 5.5
2018-Jun-17 14:00N 44°43' E 021°05'3 5.8
2018-Jun-17 13:30N 44°44' E 021°09'3 5.7
2018-Jun-17 13:00N 44°46' E 021°12'9 5.0
2018-Jun-17 11:17N 44°47' E 021°24'2 6.3
2018-Jun-17 10:57N 44°46' E 021°27'25 4.0
2018-Jun-17 04:36N 44°37' E 021°60'1 6.4
2018-Jun-17 04:25N 44°36' E 022°01'3 6.6
2018-Jun-17 04:01N 44°34' E 022°02'3 6.7
2018-Jun-17 03:31N 44°31' E 022°04'3 6.7
2018-Jun-17 03:00N 44°29' E 022°08'3 6.0
2018-Jun-17 02:30N 44°30' E 022°12'  
Track history (hours):
 
Tides and Currents Weather Stations Pressure Air Temp Water Temp Dewpoint Dewpoint Depression Visibility Wind Speed Wind Dir Waves Ship Positions

Atlas

Last reported at 2018-Jun-20 04:19 UTC. Time now 2018-Jun-20 11:05 UTC.
Position N 44°31' E 022°13'.

Length 110 m; draft 0.2 m.

Type: Tanker. MMSI: 264163292.

Date/timePositionNaut miles runAvg speedWind from/ knotsBaromVisibWave heightAir tempDewpointWater temp
2018-Jun-20 04:19N 44°31' E 022°13'3 9.0
2018-Jun-20 04:01N 44°29' E 022°11'4 8.2
2018-Jun-20 03:30N 44°30' E 022°05'4 9.0
2018-Jun-20 03:01N 44°33' E 022°02'35 6.1
2018-Jun-19 21:24N 44°49' E 021°18'4 9.5
2018-Jun-19 21:00N 44°47' E 021°14'5 9.7
2018-Jun-19 20:30N 44°44' E 021°08'5 9.6
2018-Jun-19 20:01N 44°43' E 021°02'5 9.4
2018-Jun-19 19:31N 44°41' E 020°56'510.0
2018-Jun-19 19:00N 44°39' E 020°49'5 9.6
2018-Jun-19 18:31N 44°41' E 020°43'5 9.8
2018-Jun-19 18:01N 44°45' E 020°38'5 9.3
2018-Jun-19 17:30N 44°50' E 020°39'4 7.8
2018-Jun-19 17:01N 44°51' E 020°33'4 7.3
2018-Jun-19 16:30N 44°50' E 020°28'0 0.0
2018-Jun-19 16:01N 44°50' E 020°28'0 0.0
2018-Jun-19 15:31N 44°50' E 020°28'0 0.6
2018-Jun-19 15:01N 44°50' E 020°29'2 4.4
2018-Jun-19 14:30N 44°51' E 020°26'510.6
2018-Jun-19 14:00N 44°54' E 020°20'510.5
2018-Jun-19 13:30N 44°59' E 020°18'5 9.1
2018-Jun-19 13:01N 45°03' E 020°21'611.4
2018-Jun-19 12:31N 45°08' E 020°17'611.2
2018-Jun-19 12:01N 45°11' E 020°11'611.3
2018-Jun-19 11:31N 45°10' E 020°03'510.8
2018-Jun-19 11:01N 45°13' E 019°56'4 7.5
2018-Jun-19 10:31N 45°16' E 019°53'0 0.0
2018-Jun-19 10:01N 45°16' E 019°53'0 0.0
2018-Jun-19 09:31N 45°16' E 019°53'2 4.1
2018-Jun-19 09:01N 45°14' E 019°55'3 6.1
2018-Jun-19 08:31N 45°12' E 019°57'2 3.1
2018-Jun-19 08:01N 45°11' E 019°59'0 0.0
2018-Jun-19 07:31N 45°11' E 019°59'0 0.0
2018-Jun-19 07:01N 45°11' E 019°59'0 0.0
2018-Jun-19 06:31N 45°11' E 019°59'0 0.0
2018-Jun-19 06:01N 45°11' E 019°59'0 0.0
2018-Jun-19 05:31N 45°11' E 019°59'0 0.0
2018-Jun-19 05:01N 45°11' E 019°59'0 0.0
2018-Jun-19 04:31N 45°11' E 019°59'0 0.0
2018-Jun-19 04:01N 45°11' E 019°59'0 0.0
2018-Jun-19 03:31N 45°11' E 019°59'0 0.0
2018-Jun-19 03:01N 45°11' E 019°59'0 0.0
2018-Jun-19 02:31N 45°11' E 019°59'0 0.0
2018-Jun-19 02:01N 45°11' E 019°59'0 0.0
2018-Jun-19 01:31N 45°11' E 019°59'0 0.0
2018-Jun-19 01:01N 45°11' E 019°59'0 0.0
2018-Jun-19 00:30N 45°11' E 019°59'0 0.0
2018-Jun-19 00:01N 45°11' E 019°59'0 0.0
2018-Jun-18 23:31N 45°11' E 019°59'0 0.0
2018-Jun-18 23:01N 45°11' E 019°59'0 0.0
2018-Jun-18 22:31N 45°11' E 019°59'0 0.0
2018-Jun-18 22:01N 45°11' E 019°59'0 0.0
2018-Jun-18 21:30N 45°11' E 019°59'0 0.0
2018-Jun-18 21:01N 45°11' E 019°59'0 0.0
2018-Jun-18 20:30N 45°11' E 019°59'0 0.0
2018-Jun-18 20:01N 45°11' E 019°59'0 0.0
2018-Jun-18 19:31N 45°11' E 019°59'0 0.0
2018-Jun-18 19:01N 45°11' E 019°59'0 0.0
2018-Jun-18 18:31N 45°11' E 019°59'0 0.0
2018-Jun-18 18:01N 45°11' E 019°59'0 0.0
2018-Jun-18 17:31N 45°11' E 019°59'0 0.0
2018-Jun-18 17:01N 45°11' E 019°59'0 0.0
2018-Jun-18 16:31N 45°11' E 019°59'0 0.0
2018-Jun-18 16:01N 45°11' E 019°59'0 0.0
2018-Jun-18 15:30N 45°11' E 019°59'0 0.0
2018-Jun-18 15:01N 45°11' E 019°59'0 0.0
2018-Jun-18 14:31N 45°11' E 019°59'0 0.0
2018-Jun-18 14:01N 45°11' E 019°59'0 0.0
2018-Jun-18 13:31N 45°11' E 019°59'0 0.3
2018-Jun-18 13:01N 45°11' E 019°59'3 6.7
2018-Jun-18 12:31N 45°13' E 019°56'2 3.4
2018-Jun-18 12:01N 45°15' E 019°54'0 0.0
2018-Jun-18 11:31N 45°15' E 019°54'0 0.0
2018-Jun-18 11:01N 45°15' E 019°54'0 0.0
2018-Jun-18 10:31N 45°15' E 019°54'0 0.0
2018-Jun-18 10:01N 45°15' E 019°54'0 0.0
2018-Jun-18 09:31N 45°15' E 019°54'0 0.0
2018-Jun-18 09:01N 45°15' E 019°54'0 0.0
2018-Jun-18 08:31N 45°15' E 019°54'0 0.0
2018-Jun-18 08:01N 45°15' E 019°54'0 0.0
2018-Jun-18 07:31N 45°15' E 019°54'0 0.0
2018-Jun-18 07:00N 45°15' E 019°54'0 0.0
2018-Jun-18 06:31N 45°15' E 019°54'0 0.0
2018-Jun-18 06:01N 45°15' E 019°54'0 0.0
2018-Jun-18 05:31N 45°15' E 019°54'0 0.0
2018-Jun-18 05:01N 45°15' E 019°54'0 0.0
2018-Jun-18 04:31N 45°15' E 019°54'1 1.4
2018-Jun-18 04:01N 45°14' E 019°55'3 5.7
2018-Jun-18 03:31N 45°12' E 019°57'3 5.6
2018-Jun-18 03:00N 45°11' E 020°01'3 5.5
2018-Jun-18 02:31N 45°10' E 020°05'3 5.3
2018-Jun-18 01:59N 45°10' E 020°08'2 3.8
2018-Jun-18 01:29N 45°11' E 020°11'2 5.0
2018-Jun-18 01:01N 45°10' E 020°14'3 5.6
2018-Jun-18 00:30N 45°08' E 020°17'3 5.7
2018-Jun-18 00:00N 45°05' E 020°19'2 3.3
2018-Jun-17 23:30N 45°04' E 020°20'3 5.3
2018-Jun-17 23:01N 45°02' E 020°22'2 4.6
2018-Jun-17 22:31N 44°60' E 020°20'3 5.2
2018-Jun-17 22:01N 44°58' E 020°17'3 5.6
2018-Jun-17 21:31N 44°56' E 020°19'3 5.9
2018-Jun-17 21:01N 44°53' E 020°21'3 5.7
2018-Jun-17 20:31N 44°51' E 020°24'3 6.1
2018-Jun-17 20:00N 44°50' E 020°28'3 6.3
2018-Jun-17 19:31N 44°50' E 020°33'3 6.2
2018-Jun-17 19:00N 44°51' E 020°37'3 5.3
2018-Jun-17 18:31N 44°49' E 020°39'3 5.9
2018-Jun-17 18:01N 44°46' E 020°38'3 5.8
2018-Jun-17 17:30N 44°44' E 020°41'3 6.1
2018-Jun-17 17:01N 44°41' E 020°43'3 5.8
2018-Jun-17 16:30N 44°40' E 020°46'3 5.7
2018-Jun-17 16:00N 44°39' E 020°50'3 5.8
2018-Jun-17 15:31N 44°40' E 020°54'3 6.0
2018-Jun-17 15:01N 44°42' E 020°58'3 5.7
2018-Jun-17 14:30N 44°43' E 021°01'3 5.5
2018-Jun-17 14:00N 44°43' E 021°05'3 5.8
2018-Jun-17 13:30N 44°44' E 021°09'3 5.7
2018-Jun-17 13:00N 44°46' E 021°12'9 5.0
2018-Jun-17 11:17N 44°47' E 021°24'2 6.3
2018-Jun-17 10:57N 44°46' E 021°27'25 4.0
2018-Jun-17 04:36N 44°37' E 021°60'1 6.4
2018-Jun-17 04:25N 44°36' E 022°01'3 6.6
2018-Jun-17 04:01N 44°34' E 022°02'3 6.7
2018-Jun-17 03:31N 44°31' E 022°04'3 6.7
2018-Jun-17 03:00N 44°29' E 022°08'3 6.0
2018-Jun-17 02:30N 44°30' E 022°12'  

Dump ship's entire track history